sensor_id;sensor_type;location;lat;lon;timestamp;temperature;humidity
23520;DHT22;11936;50.820;4.336;2022-11-11T00:00:26;11.40;99.90
23520;DHT22;11936;50.820;4.336;2022-11-11T00:02:56;11.30;99.90
23520;DHT22;11936;50.820;4.336;2022-11-11T00:05:23;11.10;99.90
23520;DHT22;11936;50.820;4.336;2022-11-11T00:07:52;11.00;99.90
23520;DHT22;11936;50.820;4.336;2022-11-11T00:10:18;11.20;99.90
23520;DHT22;11936;50.820;4.336;2022-11-11T00:12:43;11.20;99.90
23520;DHT22;11936;50.820;4.336;2022-11-11T00:15:09;11.10;99.90
23520;DHT22;11936;50.820;4.336;2022-11-11T00:17:35;11.10;99.90
23520;DHT22;11936;50.820;4.336;2022-11-11T00:20:19;11.00;99.90
23520;DHT22;11936;50.820;4.336;2022-11-11T00:23:04;10.90;99.90
23520;DHT22;11936;50.820;4.336;2022-11-11T00:25:54;10.90;99.90
23520;DHT22;11936;50.820;4.336;2022-11-11T00:28:20;10.90;99.90
23520;DHT22;11936;50.820;4.336;2022-11-11T00:30:45;11.00;99.90
23520;DHT22;11936;50.820;4.336;2022-11-11T00:33:11;10.90;99.90
23520;DHT22;11936;50.820;4.336;2022-11-11T00:35:36;11.00;99.90
23520;DHT22;11936;50.820;4.336;2022-11-11T00:38:20;11.00;99.90
23520;DHT22;11936;50.820;4.336;2022-11-11T00:41:05;11.10;99.90
23520;DHT22;11936;50.820;4.336;2022-11-11T00:43:30;11.10;99.90
23520;DHT22;11936;50.820;4.336;2022-11-11T00:45:56;11.20;99.90
23520;DHT22;11936;50.820;4.336;2022-11-11T00:48:42;11.10;99.90
23520;DHT22;11936;50.820;4.336;2022-11-11T00:51:26;11.30;99.90
23520;DHT22;11936;50.820;4.336;2022-11-11T00:53:52;11.10;99.90
23520;DHT22;11936;50.820;4.336;2022-11-11T00:56:18;11.00;99.90
23520;DHT22;11936;50.820;4.336;2022-11-11T00:58:43;11.00;99.90
23520;DHT22;11936;50.820;4.336;2022-11-11T01:01:09;11.10;99.90
23520;DHT22;11936;50.820;4.336;2022-11-11T01:03:34;11.10;99.90
23520;DHT22;11936;50.820;4.336;2022-11-11T01:06:01;11.10;99.90
23520;DHT22;11936;50.820;4.336;2022-11-11T01:08:27;11.00;99.90
23520;DHT22;11936;50.820;4.336;2022-11-11T01:10:52;11.20;99.90
23520;DHT22;11936;50.820;4.336;2022-11-11T01:13:21;11.10;99.90
23520;DHT22;11936;50.820;4.336;2022-11-11T01:15:48;11.10;99.90
23520;DHT22;11936;50.820;4.336;2022-11-11T01:18:17;11.10;99.90
23520;DHT22;11936;50.820;4.336;2022-11-11T01:20:43;11.00;99.90
23520;DHT22;11936;50.820;4.336;2022-11-11T01:23:11;11.10;99.90
23520;DHT22;11936;50.820;4.336;2022-11-11T01:25:39;11.20;99.90
23520;DHT22;11936;50.820;4.336;2022-11-11T01:28:05;11.20;99.90
23520;DHT22;11936;50.820;4.336;2022-11-11T01:30:32;11.20;99.90
23520;DHT22;11936;50.820;4.336;2022-11-11T01:32:58;11.30;99.90
23520;DHT22;11936;50.820;4.336;2022-11-11T01:35:27;11.20;99.90
23520;DHT22;11936;50.820;4.336;2022-11-11T01:37:52;11.10;99.90
23520;DHT22;11936;50.820;4.336;2022-11-11T01:40:18;11.00;99.90
23520;DHT22;11936;50.820;4.336;2022-11-11T01:42:52;11.00;99.90
23520;DHT22;11936;50.820;4.336;2022-11-11T01:45:47;11.00;99.90
23520;DHT22;11936;50.820;4.336;2022-11-11T01:51:06;11.10;99.90
23520;DHT22;11936;50.820;4.336;2022-11-11T01:53:36;11.10;99.90
23520;DHT22;11936;50.820;4.336;2022-11-11T01:56:03;11.10;99.90
23520;DHT22;11936;50.820;4.336;2022-11-11T01:58:28;11.10;99.90
23520;DHT22;11936;50.820;4.336;2022-11-11T02:00:56;11.10;99.90
23520;DHT22;11936;50.820;4.336;2022-11-11T02:03:24;11.10;99.90
23520;DHT22;11936;50.820;4.336;2022-11-11T02:05:51;11.00;99.90
23520;DHT22;11936;50.820;4.336;2022-11-11T02:08:26;11.00;99.90
23520;DHT22;11936;50.820;4.336;2022-11-11T02:11:09;11.00;99.90
23520;DHT22;11936;50.820;4.336;2022-11-11T02:13:40;11.00;99.90
23520;DHT22;11936;50.820;4.336;2022-11-11T02:16:25;10.90;99.90
23520;DHT22;11936;50.820;4.336;2022-11-11T02:18:50;11.00;99.90
23520;DHT22;11936;50.820;4.336;2022-11-11T02:21:24;11.10;99.90
23520;DHT22;11936;50.820;4.336;2022-11-11T02:26:27;11.10;99.90
23520;DHT22;11936;50.820;4.336;2022-11-11T02:28:54;11.20;99.90
23520;DHT22;11936;50.820;4.336;2022-11-11T02:31:29;11.30;99.90
23520;DHT22;11936;50.820;4.336;2022-11-11T02:33:55;11.20;99.90
23520;DHT22;11936;50.820;4.336;2022-11-11T02:36:21;11.20;99.90
23520;DHT22;11936;50.820;4.336;2022-11-11T02:38:47;11.20;99.90
23520;DHT22;11936;50.820;4.336;2022-11-11T02:41:13;11.20;99.90
23520;DHT22;11936;50.820;4.336;2022-11-11T02:43:57;11.20;99.90
23520;DHT22;11936;50.820;4.336;2022-11-11T02:46:23;11.10;99.90
23520;DHT22;11936;50.820;4.336;2022-11-11T02:48:48;11.00;99.90
23520;DHT22;11936;50.820;4.336;2022-11-11T02:51:14;11.00;99.90
23520;DHT22;11936;50.820;4.336;2022-11-11T02:53:39;11.10;99.90
23520;DHT22;11936;50.820;4.336;2022-11-11T02:56:05;11.20;99.90
23520;DHT22;11936;50.820;4.336;2022-11-11T02:58:31;11.20;99.90
23520;DHT22;11936;50.820;4.336;2022-11-11T03:00:57;11.10;99.90
23520;DHT22;11936;50.820;4.336;2022-11-11T03:03:23;11.10;99.90
23520;DHT22;11936;50.820;4.336;2022-11-11T03:05:49;11.00;99.90
23520;DHT22;11936;50.820;4.336;2022-11-11T03:08:14;11.20;99.90
23520;DHT22;11936;50.820;4.336;2022-11-11T03:10:40;11.10;99.90
23520;DHT22;11936;50.820;4.336;2022-11-11T03:13:05;11.10;99.90
23520;DHT22;11936;50.820;4.336;2022-11-11T03:15:32;11.00;99.90
23520;DHT22;11936;50.820;4.336;2022-11-11T03:17:57;11.10;99.90
23520;DHT22;11936;50.820;4.336;2022-11-11T03:20:23;11.20;99.90
23520;DHT22;11936;50.820;4.336;2022-11-11T03:23:13;11.20;99.90
23520;DHT22;11936;50.820;4.336;2022-11-11T03:25:44;11.30;99.90
23520;DHT22;11936;50.820;4.336;2022-11-11T03:28:18;11.20;99.90
23520;DHT22;11936;50.820;4.336;2022-11-11T03:30:47;11.20;99.90
23520;DHT22;11936;50.820;4.336;2022-11-11T03:33:14;11.20;99.90
23520;DHT22;11936;50.820;4.336;2022-11-11T03:35:40;11.20;99.90
23520;DHT22;11936;50.820;4.336;2022-11-11T03:38:09;11.20;99.90
23520;DHT22;11936;50.820;4.336;2022-11-11T03:40:46;11.40;99.90
23520;DHT22;11936;50.820;4.336;2022-11-11T03:43:16;11.30;99.90
23520;DHT22;11936;50.820;4.336;2022-11-11T03:45:43;11.40;99.90
23520;DHT22;11936;50.820;4.336;2022-11-11T03:48:09;11.50;99.90
23520;DHT22;11936;50.820;4.336;2022-11-11T03:50:35;11.50;99.90
23520;DHT22;11936;50.820;4.336;2022-11-11T03:53:01;11.40;99.90
23520;DHT22;11936;50.820;4.336;2022-11-11T03:55:27;11.50;99.90
23520;DHT22;11936;50.820;4.336;2022-11-11T03:57:53;11.40;99.90
23520;DHT22;11936;50.820;4.336;2022-11-11T04:00:21;11.40;99.90
23520;DHT22;11936;50.820;4.336;2022-11-11T04:02:47;11.40;99.90
23520;DHT22;11936;50.820;4.336;2022-11-11T04:05:31;11.50;99.90
23520;DHT22;11936;50.820;4.336;2022-11-11T04:08:17;11.60;99.90
23520;DHT22;11936;50.820;4.336;2022-11-11T04:13:56;11.50;99.90
23520;DHT22;11936;50.820;4.336;2022-11-11T04:16:43;11.40;99.90
23520;DHT22;11936;50.820;4.336;2022-11-11T04:19:09;11.40;99.90
23520;DHT22;11936;50.820;4.336;2022-11-11T04:21:53;11.30;99.90
23520;DHT22;11936;50.820;4.336;2022-11-11T04:24:20;11.10;99.90
23520;DHT22;11936;50.820;4.336;2022-11-11T04:27:12;11.00;99.90
23520;DHT22;11936;50.820;4.336;2022-11-11T04:29:38;11.00;99.90
23520;DHT22;11936;50.820;4.336;2022-11-11T04:32:06;10.90;99.90
23520;DHT22;11936;50.820;4.336;2022-11-11T04:35:06;10.90;99.90
23520;DHT22;11936;50.820;4.336;2022-11-11T04:37:34;11.10;99.90
23520;DHT22;11936;50.820;4.336;2022-11-11T04:40:00;11.10;99.90
23520;DHT22;11936;50.820;4.336;2022-11-11T04:42:47;11.10;99.90
23520;DHT22;11936;50.820;4.336;2022-11-11T04:45:13;11.10;99.90
23520;DHT22;11936;50.820;4.336;2022-11-11T04:48:03;11.00;99.90
23520;DHT22;11936;50.820;4.336;2022-11-11T04:50:31;10.80;99.90
23520;DHT22;11936;50.820;4.336;2022-11-11T04:52:58;10.70;99.90
23520;DHT22;11936;50.820;4.336;2022-11-11T04:55:24;10.80;99.90
23520;DHT22;11936;50.820;4.336;2022-11-11T04:58:08;10.90;99.90
23520;DHT22;11936;50.820;4.336;2022-11-11T05:00:34;11.00;99.90
23520;DHT22;11936;50.820;4.336;2022-11-11T05:03:00;10.90;99.90
23520;DHT22;11936;50.820;4.336;2022-11-11T05:05:46;10.80;99.90
23520;DHT22;11936;50.820;4.336;2022-11-11T05:08:48;10.70;99.90
23520;DHT22;11936;50.820;4.336;2022-11-11T05:11:32;10.70;99.90
23520;DHT22;11936;50.820;4.336;2022-11-11T05:14:03;10.70;99.90
23520;DHT22;11936;50.820;4.336;2022-11-11T05:16:55;10.70;99.90
23520;DHT22;11936;50.820;4.336;2022-11-11T05:19:40;10.80;99.90
23520;DHT22;11936;50.820;4.336;2022-11-11T05:22:30;10.70;99.90
23520;DHT22;11936;50.820;4.336;2022-11-11T05:24:57;10.70;99.90
23520;DHT22;11936;50.820;4.336;2022-11-11T05:27:41;10.70;99.90
23520;DHT22;11936;50.820;4.336;2022-11-11T05:30:09;10.80;99.90
23520;DHT22;11936;50.820;4.336;2022-11-11T05:32:35;10.70;99.90
23520;DHT22;11936;50.820;4.336;2022-11-11T05:35:01;10.60;99.90
23520;DHT22;11936;50.820;4.336;2022-11-11T05:37:26;10.50;99.90
23520;DHT22;11936;50.820;4.336;2022-11-11T05:39:52;10.40;99.90
23520;DHT22;11936;50.820;4.336;2022-11-11T05:42:18;10.40;99.90
23520;DHT22;11936;50.820;4.336;2022-11-11T05:44:44;10.30;99.90
23520;DHT22;11936;50.820;4.336;2022-11-11T05:47:09;10.20;99.90
23520;DHT22;11936;50.820;4.336;2022-11-11T05:49:35;10.40;99.90
23520;DHT22;11936;50.820;4.336;2022-11-11T05:52:01;10.30;99.90
23520;DHT22;11936;50.820;4.336;2022-11-11T05:54:27;10.40;99.90
23520;DHT22;11936;50.820;4.336;2022-11-11T05:56:52;10.40;99.90
23520;DHT22;11936;50.820;4.336;2022-11-11T05:59:18;10.50;99.90
23520;DHT22;11936;50.820;4.336;2022-11-11T06:01:44;10.60;99.90
23520;DHT22;11936;50.820;4.336;2022-11-11T06:04:09;10.60;99.90
23520;DHT22;11936;50.820;4.336;2022-11-11T06:06:35;10.70;99.90
23520;DHT22;11936;50.820;4.336;2022-11-11T06:09:02;10.70;99.90
23520;DHT22;11936;50.820;4.336;2022-11-11T06:11:28;10.60;99.90
23520;DHT22;11936;50.820;4.336;2022-11-11T06:13:56;10.60;99.90
23520;DHT22;11936;50.820;4.336;2022-11-11T06:16:22;10.70;99.90
23520;DHT22;11936;50.820;4.336;2022-11-11T06:18:49;10.70;99.90
23520;DHT22;11936;50.820;4.336;2022-11-11T06:21:15;10.80;99.90
23520;DHT22;11936;50.820;4.336;2022-11-11T06:23:41;10.90;99.90
23520;DHT22;11936;50.820;4.336;2022-11-11T06:26:06;10.90;99.90
23520;DHT22;11936;50.820;4.336;2022-11-11T06:28:44;10.90;99.90
23520;DHT22;11936;50.820;4.336;2022-11-11T06:31:22;10.90;99.90
23520;DHT22;11936;50.820;4.336;2022-11-11T06:33:48;10.90;99.90
23520;DHT22;11936;50.820;4.336;2022-11-11T06:36:17;10.70;99.90
23520;DHT22;11936;50.820;4.336;2022-11-11T06:38:43;10.70;99.90
23520;DHT22;11936;50.820;4.336;2022-11-11T06:41:10;10.60;99.90
23520;DHT22;11936;50.820;4.336;2022-11-11T06:43:38;10.40;99.90
23520;DHT22;11936;50.820;4.336;2022-11-11T06:46:03;10.50;99.90
23520;DHT22;11936;50.820;4.336;2022-11-11T06:48:29;10.50;99.90
23520;DHT22;11936;50.820;4.336;2022-11-11T06:51:01;10.50;99.90
23520;DHT22;11936;50.820;4.336;2022-11-11T06:53:27;10.60;99.90
23520;DHT22;11936;50.820;4.336;2022-11-11T06:55:55;10.60;99.90
23520;DHT22;11936;50.820;4.336;2022-11-11T06:58:21;10.60;99.90
23520;DHT22;11936;50.820;4.336;2022-11-11T07:00:47;10.60;99.90
23520;DHT22;11936;50.820;4.336;2022-11-11T07:03:15;10.30;99.90
23520;DHT22;11936;50.820;4.336;2022-11-11T07:05:42;10.30;99.90
23520;DHT22;11936;50.820;4.336;2022-11-11T07:08:10;10.20;99.90
23520;DHT22;11936;50.820;4.336;2022-11-11T07:10:38;10.20;99.90
23520;DHT22;11936;50.820;4.336;2022-11-11T07:13:04;10.20;99.90
23520;DHT22;11936;50.820;4.336;2022-11-11T07:15:30;10.10;99.90
23520;DHT22;11936;50.820;4.336;2022-11-11T07:17:56;10.10;99.90
23520;DHT22;11936;50.820;4.336;2022-11-11T07:20:22;10.00;99.90
23520;DHT22;11936;50.820;4.336;2022-11-11T07:22:47;10.10;99.90
23520;DHT22;11936;50.820;4.336;2022-11-11T07:25:13;10.10;99.90
23520;DHT22;11936;50.820;4.336;2022-11-11T07:27:40;10.20;99.90
23520;DHT22;11936;50.820;4.336;2022-11-11T07:30:07;10.10;99.90
23520;DHT22;11936;50.820;4.336;2022-11-11T07:32:33;10.00;99.90
23520;DHT22;11936;50.820;4.336;2022-11-11T07:34:59;10.10;99.90
23520;DHT22;11936;50.820;4.336;2022-11-11T07:37:25;10.10;99.90
23520;DHT22;11936;50.820;4.336;2022-11-11T07:39:51;10.10;99.90
23520;DHT22;11936;50.820;4.336;2022-11-11T07:42:17;10.20;99.90
23520;DHT22;11936;50.820;4.336;2022-11-11T07:44:43;10.20;99.90
23520;DHT22;11936;50.820;4.336;2022-11-11T07:47:09;10.10;99.90
23520;DHT22;11936;50.820;4.336;2022-11-11T07:49:34;10.00;99.90
23520;DHT22;11936;50.820;4.336;2022-11-11T07:52:00;10.00;99.90
23520;DHT22;11936;50.820;4.336;2022-11-11T07:54:25;10.20;99.90
23520;DHT22;11936;50.820;4.336;2022-11-11T07:56:51;10.30;99.90
23520;DHT22;11936;50.820;4.336;2022-11-11T07:59:16;10.20;99.90
23520;DHT22;11936;50.820;4.336;2022-11-11T08:01:42;10.20;99.90
23520;DHT22;11936;50.820;4.336;2022-11-11T08:04:08;10.10;99.90
23520;DHT22;11936;50.820;4.336;2022-11-11T08:06:33;10.10;99.90
23520;DHT22;11936;50.820;4.336;2022-11-11T08:08:59;10.20;99.90
23520;DHT22;11936;50.820;4.336;2022-11-11T08:11:25;10.30;99.90
23520;DHT22;11936;50.820;4.336;2022-11-11T08:14:09;10.30;99.90
23520;DHT22;11936;50.820;4.336;2022-11-11T08:16:35;10.40;99.90
23520;DHT22;11936;50.820;4.336;2022-11-11T08:19:00;10.40;99.90
23520;DHT22;11936;50.820;4.336;2022-11-11T08:21:26;10.40;99.90
23520;DHT22;11936;50.820;4.336;2022-11-11T08:23:52;10.10;99.90
23520;DHT22;11936;50.820;4.336;2022-11-11T08:26:18;10.10;99.90
23520;DHT22;11936;50.820;4.336;2022-11-11T08:28:46;10.20;99.90
23520;DHT22;11936;50.820;4.336;2022-11-11T08:31:12;10.30;99.90
23520;DHT22;11936;50.820;4.336;2022-11-11T08:33:37;10.50;99.90
23520;DHT22;11936;50.820;4.336;2022-11-11T08:36:03;10.50;99.90
23520;DHT22;11936;50.820;4.336;2022-11-11T08:38:30;10.50;99.90
23520;DHT22;11936;50.820;4.336;2022-11-11T08:40:59;10.60;99.90
23520;DHT22;11936;50.820;4.336;2022-11-11T08:43:25;10.70;99.90
23520;DHT22;11936;50.820;4.336;2022-11-11T08:45:52;10.70;99.90
23520;DHT22;11936;50.820;4.336;2022-11-11T08:48:18;10.80;99.90
23520;DHT22;11936;50.820;4.336;2022-11-11T08:50:43;10.70;99.90
23520;DHT22;11936;50.820;4.336;2022-11-11T08:53:09;10.50;99.90
23520;DHT22;11936;50.820;4.336;2022-11-11T08:55:36;10.50;99.90
23520;DHT22;11936;50.820;4.336;2022-11-11T08:58:05;10.50;99.90
23520;DHT22;11936;50.820;4.336;2022-11-11T09:00:32;10.40;99.90
23520;DHT22;11936;50.820;4.336;2022-11-11T09:03:02;10.40;99.90
23520;DHT22;11936;50.820;4.336;2022-11-11T09:05:28;10.40;99.90
23520;DHT22;11936;50.820;4.336;2022-11-11T09:07:53;10.50;99.90
23520;DHT22;11936;50.820;4.336;2022-11-11T09:10:19;10.70;99.90
23520;DHT22;11936;50.820;4.336;2022-11-11T09:12:45;10.70;99.90
23520;DHT22;11936;50.820;4.336;2022-11-11T09:15:10;10.80;99.90
23520;DHT22;11936;50.820;4.336;2022-11-11T09:17:36;10.90;99.90
23520;DHT22;11936;50.820;4.336;2022-11-11T09:20:02;11.00;99.90
23520;DHT22;11936;50.820;4.336;2022-11-11T09:22:27;11.00;99.90
23520;DHT22;11936;50.820;4.336;2022-11-11T09:24:53;11.00;99.90
23520;DHT22;11936;50.820;4.336;2022-11-11T09:27:19;11.00;99.90
23520;DHT22;11936;50.820;4.336;2022-11-11T09:29:44;11.00;99.90
23520;DHT22;11936;50.820;4.336;2022-11-11T09:32:10;10.90;99.90
23520;DHT22;11936;50.820;4.336;2022-11-11T09:34:35;11.00;99.90
23520;DHT22;11936;50.820;4.336;2022-11-11T09:37:01;11.00;99.90
23520;DHT22;11936;50.820;4.336;2022-11-11T09:39:26;11.00;99.90
23520;DHT22;11936;50.820;4.336;2022-11-11T09:50:31;11.30;99.90
23520;DHT22;11936;50.820;4.336;2022-11-11T09:53:10;11.30;99.90
23520;DHT22;11936;50.820;4.336;2022-11-11T09:55:59;11.40;99.90
23520;DHT22;11936;50.820;4.336;2022-11-11T09:58:31;11.60;99.90
23520;DHT22;11936;50.820;4.336;2022-11-11T10:01:06;11.60;99.90
23520;DHT22;11936;50.820;4.336;2022-11-11T10:03:38;11.70;99.90
23520;DHT22;11936;50.820;4.336;2022-11-11T10:06:11;11.70;99.90
23520;DHT22;11936;50.820;4.336;2022-11-11T10:11:18;12.00;99.90
23520;DHT22;11936;50.820;4.336;2022-11-11T10:13:45;12.00;99.90
23520;DHT22;11936;50.820;4.336;2022-11-11T10:16:24;12.00;99.90
23520;DHT22;11936;50.820;4.336;2022-11-11T10:21:43;12.20;99.90
23520;DHT22;11936;50.820;4.336;2022-11-11T10:24:29;12.50;99.90
23520;DHT22;11936;50.820;4.336;2022-11-11T10:26:59;12.70;99.90
23520;DHT22;11936;50.820;4.336;2022-11-11T10:29:39;12.90;99.90
23520;DHT22;11936;50.820;4.336;2022-11-11T10:32:21;12.90;99.90
23520;DHT22;11936;50.820;4.336;2022-11-11T10:34:49;12.80;99.90
23520;DHT22;11936;50.820;4.336;2022-11-11T10:37:26;12.80;99.90
23520;DHT22;11936;50.820;4.336;2022-11-11T10:40:08;12.70;99.90
23520;DHT22;11936;50.820;4.336;2022-11-11T10:42:36;12.70;99.90
23520;DHT22;11936;50.820;4.336;2022-11-11T10:45:12;12.70;99.90
23520;DHT22;11936;50.820;4.336;2022-11-11T10:47:44;12.70;99.90
23520;DHT22;11936;50.820;4.336;2022-11-11T10:50:14;12.60;99.90
23520;DHT22;11936;50.820;4.336;2022-11-11T10:52:47;12.80;99.90
23520;DHT22;11936;50.820;4.336;2022-11-11T10:55:26;12.80;99.90
23520;DHT22;11936;50.820;4.336;2022-11-11T10:58:00;12.90;99.90
23520;DHT22;11936;50.820;4.336;2022-11-11T11:00:26;12.90;99.90
23520;DHT22;11936;50.820;4.336;2022-11-11T11:02:54;12.80;99.90
23520;DHT22;11936;50.820;4.336;2022-11-11T11:06:01;12.60;99.90
23520;DHT22;11936;50.820;4.336;2022-11-11T11:08:48;12.70;99.90
23520;DHT22;11936;50.820;4.336;2022-11-11T11:11:20;12.80;99.90
23520;DHT22;11936;50.820;4.336;2022-11-11T11:13:51;12.70;99.90
23520;DHT22;11936;50.820;4.336;2022-11-11T11:16:25;12.80;99.90
23520;DHT22;11936;50.820;4.336;2022-11-11T11:19:25;12.60;99.90
23520;DHT22;11936;50.820;4.336;2022-11-11T11:21:58;12.60;99.90
23520;DHT22;11936;50.820;4.336;2022-11-11T11:26:57;12.70;99.90
23520;DHT22;11936;50.820;4.336;2022-11-11T11:29:27;12.80;99.90
23520;DHT22;11936;50.820;4.336;2022-11-11T11:31:54;12.90;99.90
23520;DHT22;11936;50.820;4.336;2022-11-11T11:34:19;13.00;99.90
23520;DHT22;11936;50.820;4.336;2022-11-11T11:36:59;13.00;99.90
23520;DHT22;11936;50.820;4.336;2022-11-11T11:39:36;13.10;99.90
23520;DHT22;11936;50.820;4.336;2022-11-11T11:42:03;13.20;99.90
23520;DHT22;11936;50.820;4.336;2022-11-11T11:44:33;13.20;99.90
23520;DHT22;11936;50.820;4.336;2022-11-11T11:53:05;13.40;99.90
23520;DHT22;11936;50.820;4.336;2022-11-11T11:55:36;13.40;99.90
23520;DHT22;11936;50.820;4.336;2022-11-11T11:58:29;13.40;99.90
23520;DHT22;11936;50.820;4.336;2022-11-11T12:01:04;13.40;99.90
23520;DHT22;11936;50.820;4.336;2022-11-11T12:11:57;13.60;99.90
23520;DHT22;11936;50.820;4.336;2022-11-11T12:15:20;13.70;99.90
23520;DHT22;11936;50.820;4.336;2022-11-11T12:17:29;14.00;99.90
23520;DHT22;11936;50.820;4.336;2022-11-11T12:20:07;13.90;99.90
23520;DHT22;11936;50.820;4.336;2022-11-11T12:36:32;13.90;99.90
23520;DHT22;11936;50.820;4.336;2022-11-11T12:39:10;14.00;99.90
23520;DHT22;11936;50.820;4.336;2022-11-11T12:44:35;14.20;99.90
23520;DHT22;11936;50.820;4.336;2022-11-11T12:50:00;14.10;99.90
23520;DHT22;11936;50.820;4.336;2022-11-11T13:09:32;14.60;99.90
23520;DHT22;11936;50.820;4.336;2022-11-11T13:12:15;14.60;99.90
23520;DHT22;11936;50.820;4.336;2022-11-11T13:17:20;14.70;99.90
23520;DHT22;11936;50.820;4.336;2022-11-11T13:20:04;14.70;99.90
23520;DHT22;11936;50.820;4.336;2022-11-11T13:22:36;14.60;99.90
23520;DHT22;11936;50.820;4.336;2022-11-11T13:25:04;14.60;99.90
23520;DHT22;11936;50.820;4.336;2022-11-11T13:30:31;14.70;99.90
23520;DHT22;11936;50.820;4.336;2022-11-11T13:33:13;14.80;99.90
23520;DHT22;11936;50.820;4.336;2022-11-11T13:35:44;14.70;99.90
23520;DHT22;11936;50.820;4.336;2022-11-11T13:38:24;14.70;99.90
23520;DHT22;11936;50.820;4.336;2022-11-11T13:40:52;14.80;99.90
23520;DHT22;11936;50.820;4.336;2022-11-11T13:43:42;14.70;99.90
23520;DHT22;11936;50.820;4.336;2022-11-11T13:46:40;14.80;99.90
23520;DHT22;11936;50.820;4.336;2022-11-11T13:49:24;14.80;99.90
23520;DHT22;11936;50.820;4.336;2022-11-11T13:51:58;14.80;99.90
23520;DHT22;11936;50.820;4.336;2022-11-11T13:54:35;14.90;99.90
23520;DHT22;11936;50.820;4.336;2022-11-11T13:57:13;15.00;99.90
23520;DHT22;11936;50.820;4.336;2022-11-11T13:59:48;14.90;99.90
23520;DHT22;11936;50.820;4.336;2022-11-11T14:15:41;14.70;99.90
23520;DHT22;11936;50.820;4.336;2022-11-11T14:20:55;14.90;99.90
23520;DHT22;11936;50.820;4.336;2022-11-11T14:33:48;15.00;99.90
23520;DHT22;11936;50.820;4.336;2022-11-11T14:41:58;15.00;99.90
23520;DHT22;11936;50.820;4.336;2022-11-11T14:49:48;14.80;99.90
23520;DHT22;11936;50.820;4.336;2022-11-11T14:52:25;14.70;99.90
23520;DHT22;11936;50.820;4.336;2022-11-11T15:02:52;14.30;99.90
23520;DHT22;11936;50.820;4.336;2022-11-11T15:10:59;14.40;99.90
23520;DHT22;11936;50.820;4.336;2022-11-11T15:16:31;14.50;99.90
23520;DHT22;11936;50.820;4.336;2022-11-11T15:21:35;14.50;99.90
23520;DHT22;11936;50.820;4.336;2022-11-11T15:24:20;14.50;99.90
23520;DHT22;11936;50.820;4.336;2022-11-11T15:27:19;14.40;99.90
23520;DHT22;11936;50.820;4.336;2022-11-11T15:32:39;14.40;99.90
23520;DHT22;11936;50.820;4.336;2022-11-11T15:38:00;14.30;99.90
23520;DHT22;11936;50.820;4.336;2022-11-11T15:40:41;14.20;99.90
23520;DHT22;11936;50.820;4.336;2022-11-11T15:43:26;14.10;99.90
23520;DHT22;11936;50.820;4.336;2022-11-11T15:45:56;14.10;99.90
23520;DHT22;11936;50.820;4.336;2022-11-11T15:48:26;13.90;99.90
23520;DHT22;11936;50.820;4.336;2022-11-11T15:50:54;13.90;99.90
23520;DHT22;11936;50.820;4.336;2022-11-11T15:53:25;13.90;99.90
23520;DHT22;11936;50.820;4.336;2022-11-11T15:55:53;13.80;99.90
23520;DHT22;11936;50.820;4.336;2022-11-11T15:58:36;13.80;99.90
23520;DHT22;11936;50.820;4.336;2022-11-11T16:01:05;13.70;99.90
23520;DHT22;11936;50.820;4.336;2022-11-11T16:03:40;13.70;99.90
23520;DHT22;11936;50.820;4.336;2022-11-11T16:06:11;13.70;99.90
23520;DHT22;11936;50.820;4.336;2022-11-11T16:08:42;13.70;99.90
23520;DHT22;11936;50.820;4.336;2022-11-11T16:11:12;13.60;99.90
23520;DHT22;11936;50.820;4.336;2022-11-11T16:13:44;13.60;99.90
23520;DHT22;11936;50.820;4.336;2022-11-11T16:16:21;13.60;99.90
23520;DHT22;11936;50.820;4.336;2022-11-11T16:18:55;13.60;99.90
23520;DHT22;11936;50.820;4.336;2022-11-11T16:21:34;13.40;99.90
23520;DHT22;11936;50.820;4.336;2022-11-11T16:24:02;13.40;99.90
23520;DHT22;11936;50.820;4.336;2022-11-11T16:26:32;13.30;99.90
23520;DHT22;11936;50.820;4.336;2022-11-11T16:28:59;13.40;99.90
23520;DHT22;11936;50.820;4.336;2022-11-11T16:37:03;13.20;99.90
23520;DHT22;11936;50.820;4.336;2022-11-11T16:39:31;13.10;99.90
23520;DHT22;11936;50.820;4.336;2022-11-11T16:41:59;13.20;99.90
23520;DHT22;11936;50.820;4.336;2022-11-11T16:50:17;13.20;99.90
23520;DHT22;11936;50.820;4.336;2022-11-11T16:53:01;13.20;99.90
23520;DHT22;11936;50.820;4.336;2022-11-11T16:55:45;13.20;99.90
23520;DHT22;11936;50.820;4.336;2022-11-11T16:58:18;13.10;99.90
23520;DHT22;11936;50.820;4.336;2022-11-11T17:00:45;13.10;99.90
23520;DHT22;11936;50.820;4.336;2022-11-11T17:03:19;13.00;99.90
23520;DHT22;11936;50.820;4.336;2022-11-11T17:08:34;12.90;99.90
23520;DHT22;11936;50.820;4.336;2022-11-11T17:11:08;12.90;99.90
23520;DHT22;11936;50.820;4.336;2022-11-11T17:13:34;12.90;99.90
23520;DHT22;11936;50.820;4.336;2022-11-11T17:16:02;12.90;99.90
23520;DHT22;11936;50.820;4.336;2022-11-11T17:18:31;13.00;99.90
23520;DHT22;11936;50.820;4.336;2022-11-11T17:20:58;13.00;99.90
23520;DHT22;11936;50.820;4.336;2022-11-11T17:23:23;12.90;99.90
23520;DHT22;11936;50.820;4.336;2022-11-11T17:25:56;12.90;99.90
23520;DHT22;11936;50.820;4.336;2022-11-11T17:28:22;13.00;99.90
23520;DHT22;11936;50.820;4.336;2022-11-11T17:30:48;13.00;99.90
23520;DHT22;11936;50.820;4.336;2022-11-11T17:33:13;12.90;99.90
23520;DHT22;11936;50.820;4.336;2022-11-11T17:35:39;13.00;99.90
23520;DHT22;11936;50.820;4.336;2022-11-11T17:38:13;13.00;99.90
23520;DHT22;11936;50.820;4.336;2022-11-11T17:40:44;12.90;99.90
23520;DHT22;11936;50.820;4.336;2022-11-11T17:43:10;12.90;99.90
23520;DHT22;11936;50.820;4.336;2022-11-11T17:45:35;12.90;99.90
23520;DHT22;11936;50.820;4.336;2022-11-11T17:48:01;12.90;99.90
23520;DHT22;11936;50.820;4.336;2022-11-11T17:50:27;12.80;99.90
23520;DHT22;11936;50.820;4.336;2022-11-11T17:52:54;12.90;99.90
23520;DHT22;11936;50.820;4.336;2022-11-11T17:55:21;12.90;99.90
23520;DHT22;11936;50.820;4.336;2022-11-11T17:57:47;12.90;99.90
23520;DHT22;11936;50.820;4.336;2022-11-11T18:00:13;12.80;99.90
23520;DHT22;11936;50.820;4.336;2022-11-11T18:02:39;12.90;99.90
23520;DHT22;11936;50.820;4.336;2022-11-11T18:05:05;12.90;99.90
23520;DHT22;11936;50.820;4.336;2022-11-11T18:07:30;12.90;99.90
23520;DHT22;11936;50.820;4.336;2022-11-11T18:09:56;12.90;99.90
23520;DHT22;11936;50.820;4.336;2022-11-11T18:12:22;12.90;99.90
23520;DHT22;11936;50.820;4.336;2022-11-11T18:14:47;13.00;99.90
23520;DHT22;11936;50.820;4.336;2022-11-11T18:17:13;13.00;99.90
23520;DHT22;11936;50.820;4.336;2022-11-11T18:19:38;12.90;99.90
23520;DHT22;11936;50.820;4.336;2022-11-11T18:22:04;12.90;99.90
23520;DHT22;11936;50.820;4.336;2022-11-11T18:24:29;12.90;99.90
23520;DHT22;11936;50.820;4.336;2022-11-11T18:26:55;12.80;99.90
23520;DHT22;11936;50.820;4.336;2022-11-11T18:29:21;12.80;99.90